Latest Coastal Weather Observations for Ulladulla

IDN60701

Issued at 3:31 pm EST Monday 27 April 2015 (issued every 10 minutes, with the page automatically refreshed every 10 minutes)

About coastal observations | Map of coastal stations | Coastal observations for NSW | Marine services | Other Formats
Station Details ID: 069138 Name: ULLADULLA AWS Lat: -35.36 Lon: 150.48 Height: 35.7 m
Data from the previous 72 hours. | See also: Recent months at Ulladulla
Date/Time
EST
Temp

°C
Wind Pressure Rain
since 9am
mm
Weather Cloud Vis
km
Sea
Height
m
Swell
Dir
 
Speed
knots
Gust
knots
hPa Trend Height
m
Period
s
Dir
27/03:30pm 17.4 S 11 15 1019.0 - 0.0 - - - - - - -
27/03:00pm 17.4 S 11 15 1018.9 - 0.0 - - - - - - -
27/02:30pm 17.6 S 10 13 1018.7 - 0.0 - - - - - - -
27/02:00pm 17.8 S 9 13 1018.5 - 0.0 - - - - - - -
27/01:30pm 17.6 SSW 6 11 1018.4 - 0.0 - - - - - - -
27/01:00pm 18.0 S 7 10 1018.4 - 0.0 - - - - - - -
27/12:30pm 17.8 SSW 8 13 1018.6 - 0.0 - - - - - - -
27/12:00pm 17.4 SSW 10 14 1018.7 - 0.0 - - - - - - -
27/11:30am 17.2 SSW 8 13 1018.9 - 0.0 - - - - - - -
27/11:00am 17.1 SSW 8 13 1019.1 - 0.0 - - - - - - -
27/10:30am 17.1 SW 7 12 1019.1 - 0.0 - - - - - - -
27/10:00am 16.6 SW 6 10 1019.1 - 0.0 - - - - - - -
27/09:30am 16.1 WSW 6 11 1019.0 - 0.0 - - - - - - -
27/09:00am 15.6 WSW 4 7 1018.8 - 2.4 - - - - - - -
27/08:30am 15.1 W 5 9 1018.6 - 2.4 - - - - - - -
27/08:00am 13.7 WNW 4 6 1018.4 - 2.4 - - - - - - -
27/07:30am 12.6 W 3 5 1017.8 - 2.4 - - - - - - -
27/07:00am 11.0 W 4 6 1017.4 - 2.4 - - - - - - -
27/06:30am 10.6 WNW 5 9 1017.1 - 2.4 - - - - - - -
27/06:00am 9.9 W 4 7 1016.8 - 2.4 - - - - - - -
27/05:30am 9.2 W 4 6 1016.8 - 2.4 - - - - - - -
27/05:00am 9.7 WSW 5 6 1016.6 - 2.4 - - - - - - -
27/04:30am 9.8 W 5 7 1016.4 - 2.4 - - - - - - -
27/04:00am 10.0 W 5 6 1016.1 - 2.4 - - - - - - -
27/03:30am 10.7 WSW 5 8 1016.0 - 2.4 - - - - - - -
27/03:00am 10.4 WSW 5 8 1015.9 - 2.4 - - - - - - -
27/02:30am 10.1 W 4 7 1015.9 - 2.4 - - - - - - -
27/02:00am 10.5 WSW 4 7 1015.9 - 2.4 - - - - - - -
27/01:30am 10.4 WSW 4 7 1015.9 - 2.4 - - - - - - -
27/01:00am 10.7 WSW 5 7 1015.9 - 2.4 - - - - - - -
27/12:30am 11.3 WSW 4 6 1015.9 - 2.4 - - - - - - -
27/12:00am 11.7 WSW 5 8 1015.8 - 2.4 - - - - - - -
 
Date/Time
EST
Temp

°C
Wind Pressure Rain
since 9am
mm
Weather Cloud Vis
km
Sea
Height
m
Swell
Dir
 
Speed
knots
Gust
knots
hPa Trend Height
m
Period
s
Dir
26/11:30pm 12.2 WSW 6 10 1015.9 - 2.4 - - - - - - -
26/11:00pm 12.5 SW 7 11 1015.9 - 2.4 - - - - - - -
26/10:30pm 12.9 SW 8 12 1015.8 - 2.4 - - - - - - -
26/10:00pm 13.3 SW 7 12 1015.7 - 2.4 - - - - - - -
26/09:30pm 14.3 SW 9 13 1015.4 - 2.4 - - - - - - -
26/09:00pm 15.8 SSW 13 19 1015.1 - 2.4 - - - - - - -
26/08:30pm 16.6 S 21 27 1014.7 - 2.4 - - - - - - -
26/08:00pm 16.8 S 18 23 1014.3 - 2.4 - - - - - - -
26/07:30pm 16.6 S 10 19 1014.1 - 2.4 - - - - - - -
26/07:00pm 14.8 WSW 4 6 1013.8 - 2.4 - - - - - - -
26/06:30pm 14.6 W 3 5 1013.3 - 2.4 - - - - - - -
26/06:00pm 15.2 WSW 4 6 1012.9 - 2.4 - - - - - - -
26/05:30pm 16.5 WSW 4 9 1012.7 - 2.4 - - - - - - -
26/05:00pm 17.3 S 11 15 1012.1 - 2.4 - - - - - - -
26/04:30pm 17.4 S 17 25 1011.7 - 2.4 - - - - - - -
26/04:22pm 17.5 SSW 15 25 1011.6 - 2.4 - - - - - - -
26/04:00pm 18.0 S 16 25 1011.3 - 2.4 - - - - - - -
26/03:30pm 18.0 S 22 30 1010.7 - 2.4 - - - - - - -
26/03:00pm 18.0 S 19 31 1010.4 - 2.4 Recent precip. - - - - - -
26/02:48pm 17.6 SSW 17 27 1010.3 - 2.4 - - - - - - -
26/02:30pm 18.4 SSW 12 17 1010.3 - 2.4 - - - - - - -
26/02:01pm 18.1 SSW 16 27 1009.8 - 2.4 - - - - - - -
26/02:00pm 18.2 SSW 16 23 1009.8 - 2.2 - - - - - - -
26/01:30pm 18.0 SSW 14 21 1009.6 - 2.2 - - - - - - -
26/01:00pm 16.2 SSW 13 20 1009.4 - 2.2 - - - - - - -
26/12:30pm 14.7 SW 12 17 1009.4 - 2.2 - - - - - - -
26/12:00pm 13.9 SSW 11 16 1009.4 - 1.6 Rain - - - - - -
26/11:30am 13.9 SSW 13 22 1009.3 - 1.0 - - - - - - -
26/11:00am 14.3 SW 16 25 1009.0 - 0.6 - - - - - - -
26/10:36am 14.2 SSW 16 27 1008.7 - 0.6 - - - - - - -
26/10:30am 13.9 SW 15 23 1008.5 - 0.6 - - - - - - -
26/10:00am 14.5 SSW 18 29 1008.1 - 0.0 - - - - - - -
26/09:30am 15.0 SSW 16 27 1007.9 - 0.0 - - - - - - -
26/09:00am 13.7 WSW 9 17 1007.9 - 33.2 Recent precip. - - - - - -
26/08:30am 12.8 WSW 7 13 1007.9 - 33.2 - - - - - - -
26/08:00am 12.4 WSW 5 9 1007.8 - 33.0 - - - - - - -
26/07:30am 12.3 W 5 9 1007.6 - 32.6 - - - - - - -
26/07:00am 12.2 WNW 5 8 1007.2 - 32.2 - - - - - - -
26/06:30am 12.2 WNW 6 9 1006.9 - 31.8 - - - - - - -
26/06:00am 12.4 WNW 5 9 1006.8 - 31.2 Rain - - - - - -
26/05:30am 12.2 W 6 10 1006.9 - 30.6 - - - - - - -
26/05:00am 12.4 WSW 6 11 1007.0 - 28.4 - - - - - - -
26/04:30am 12.8 SW 6 9 1006.8 - 27.2 - - - - - - -
26/04:00am 12.6 WSW 6 11 1006.6 - 27.2 - - - - - - -
26/03:30am 12.3 WSW 5 8 1006.6 - 27.2 - - - - - - -
26/03:00am 12.7 WSW 6 11 1006.8 - 27.2 - - - - - - -
26/02:30am 12.4 WSW 6 10 1007.0 - 27.2 - - - - - - -
26/02:00am 12.1 W 5 7 1007.3 - 27.2 - - - - - - -
26/01:30am 12.2 SW 5 8 1007.4 - 27.2 - - - - - - -
26/01:00am 12.2 WSW 5 8 1007.2 - 27.2 - - - - - - -
26/12:30am 12.2 WSW 6 11 1007.1 - 27.2 - - - - - - -
26/12:00am 12.0 WSW 6 9 1007.3 - 27.2 - - - - - - -
 
Date/Time
EST
Temp

°C
Wind Pressure Rain
since 9am
mm
Weather Cloud Vis
km
Sea
Height
m
Swell
Dir
 
Speed
knots
Gust
knots
hPa Trend Height
m
Period
s
Dir
25/11:30pm 11.8 W 4 7 1007.9 - 27.2 - - - - - - -
25/11:00pm 11.9 W 5 9 1008.0 - 27.2 - - - - - - -
25/10:30pm 12.1 WSW 4 6 1008.3 - 27.2 - - - - - - -
25/10:00pm 12.3 WSW 4 7 1008.2 - 27.2 - - - - - - -
25/09:30pm 12.4 WSW 5 7 1008.4 - 27.2 - - - - - - -
25/09:00pm 12.4 WSW 5 7 1008.5 - 27.2 - - - - - - -
25/08:30pm 12.6 NW 5 7 1008.8 - 27.2 - - - - - - -
25/08:00pm 12.5 WNW 4 6 1008.6 - 27.2 - - - - - - -
25/07:30pm 12.7 WNW 3 4 1008.3 - 27.2 - - - - - - -
25/07:00pm 12.9 W 2 4 1008.3 - 27.2 - - - - - - -
25/06:30pm 13.3 S 6 9 1007.6 - 27.0 - - - - - - -
25/06:00pm 12.3 SSW 6 8 1007.5 - 27.0 - - - - - - -
25/05:30pm 13.0 SW 6 9 1006.7 - 27.0 - - - - - - -
25/05:00pm 12.7 S 4 7 1006.6 - 27.0 - - - - - - -
25/04:30pm 12.3 NNW 6 11 1007.8 - 25.2 - - - - - - -
25/04:00pm 12.6 WSW 9 19 1007.0 - 22.2 - - - - - - -
25/03:44pm 13.1 W 15 27 1006.3 - 11.0 - - - - - - -
25/03:42pm 13.3 W 14 27 1006.6 - 9.6 - - - - - - -
25/03:30pm 18.5 SSW 7 13 1006.3 - 0.6 - - - - - - -
25/03:00pm 19.2 SSE 7 10 1005.4 - 0.0 - - - - - - -
25/02:30pm 19.2 S 6 9 1005.6 - 0.0 - - - - - - -
25/02:00pm 19.7 S 6 8 1005.6 - 0.0 - - - - - - -
25/01:30pm 21.0 SSE 5 8 1005.3 - 0.0 - - - - - - -
25/01:00pm 21.1 SSE 5 6 1005.9 - 0.0 - - - - - - -
25/12:30pm 21.1 S 5 6 1006.4 - 0.0 - - - - - - -
25/12:00pm 21.3 S 5 7 1006.8 - 0.0 - - - - - - -
25/11:30am 21.3 S 5 7 1007.1 - 0.0 - - - - - - -
25/11:00am 21.2 S 5 7 1007.4 - 0.0 - - - - - - -
25/10:30am 21.4 SSW 4 6 1007.3 - 0.0 - - - - - - -
25/10:00am 20.8 SSW 3 5 1007.5 - 0.0 - - - - - - -
25/09:30am 20.7 SSW 4 5 1007.5 - 0.0 - - - - - - -
25/09:00am 20.1 WSW 2 4 1007.7 - 0.0 - - - - - - -
25/08:30am 18.9 W 4 6 1007.5 - 0.0 - - - - - - -
25/08:00am 18.4 W 5 7 1007.4 - 0.0 - - - - - - -
25/07:30am 17.5 W 5 8 1006.9 - 0.0 - - - - - - -
25/07:00am 16.6 W 5 8 1006.6 - 0.0 - - - - - - -
25/06:30am 16.0 W 5 8 1006.4 - 0.0 - - - - - - -
25/06:00am 16.3 WNW 6 10 1006.4 - 0.0 - - - - - - -
25/05:30am 16.0 WNW 6 10 1006.0 - 0.0 - - - - - - -
25/05:00am 16.0 WNW 4 7 1006.0 - 0.0 - - - - - - -
25/04:30am 15.6 W 4 7 1005.7 - 0.0 - - - - - - -
25/04:00am 15.9 WNW 3 5 1005.6 - 0.0 - - - - - - -
25/03:30am 16.7 WNW 4 7 1005.4 - 0.0 - - - - - - -
25/03:00am 17.1 WNW 5 10 1005.4 - 0.0 - - - - - - -
25/02:30am 17.0 W 5 9 1005.3 - 0.0 - - - - - - -
25/02:00am 17.5 WNW 6 10 1005.5 - 0.0 - - - - - - -
25/01:30am 17.0 NW 7 10 1005.7 - 0.0 - - - - - - -
25/01:00am 16.4 NW 3 6 1006.1 - 0.0 - - - - - - -
25/12:30am 16.9 NW 4 7 1006.1 - 0.0 - - - - - - -
25/12:00am 16.8 NW 4 8 1006.2 - 0.0 - - - - - - -
 
Date/Time
EST
Temp

°C
Wind Pressure Rain
since 9am
mm
Weather Cloud Vis
km
Sea
Height
m
Swell
Dir
 
Speed
knots
Gust
knots
hPa Trend Height
m
Period
s
Dir
24/11:30pm 17.5 NW 6 12 1006.2 - 0.0 - - - - - - -
24/11:00pm 16.9 NW 5 7 1006.1 - 0.0 - - - - - - -
24/10:30pm 17.1 N 4 6 1006.2 - 0.0 - - - - - - -
24/10:00pm 16.1 NNW 3 4 1006.1 - 0.0 - - - - - - -
24/09:30pm 17.1 NW 4 5 1006.1 - 0.0 - - - - - - -
24/09:00pm 17.8 NW 4 5 1006.1 - 0.0 - - - - - - -
24/08:30pm 18.1 NW 2 4 1005.9 - 0.0 - - - - - - -
24/08:00pm 18.5 CALM 0 1 1005.6 - 0.0 - - - - - - -
24/07:30pm 19.7 WNW 5 8 1005.2 - 0.0 - - - - - - -
24/07:00pm 19.8 W 5 10 1005.1 - 0.0 - - - - - - -
24/06:30pm 19.8 W 6 12 1004.9 - 0.0 - - - - - - -
24/06:00pm 19.6 W 3 7 1004.5 - 0.0 - - - - - - -
24/05:30pm 20.1 W 5 9 1004.1 - 0.0 - - - - - - -
24/05:00pm 20.5 WNW 5 9 1004.0 - 0.0 - - - - - - -
24/04:30pm 20.3 WNW 2 4 1003.6 - 0.0 - - - - - - -
24/04:00pm 21.3 W 2 5 1003.6 - 0.0 - - - - - - -

Other Formats:

Comma delimited format used in spreadsheet applications
http://www.bom.gov.au/fwo/IDN60701/IDN60701.94938.axf

JavaScript Object Notation format (JSON) in row-major order
http://www.bom.gov.au/fwo/IDN60701/IDN60701.94938.json